createdAt,value
2023-02-16T00:02:59.455Z,-0.07
2023-02-16T00:08:02.053Z,-0.16
2023-02-16T00:13:44.938Z,-0.27
2023-02-16T00:18:48.086Z,-0.34
2023-02-16T00:23:49.971Z,-0.30
2023-02-16T00:28:54.564Z,-0.19
2023-02-16T00:33:56.685Z,-0.22
2023-02-16T00:38:58.165Z,-0.28
2023-02-16T00:43:59.943Z,-0.35
2023-02-16T00:49:01.858Z,-0.36
2023-02-16T00:54:03.420Z,-0.31
2023-02-16T00:59:07.908Z,-0.33
2023-02-16T01:04:12.590Z,-0.40
2023-02-16T01:09:35.717Z,-0.52
2023-02-16T01:14:37.387Z,-0.58
2023-02-16T01:19:39.047Z,-0.55
2023-02-16T01:24:40.575Z,-0.49
2023-02-16T01:29:42.681Z,-0.47
2023-02-16T01:34:44.538Z,-0.53
2023-02-16T01:39:46.061Z,-0.59
2023-02-16T01:44:51.624Z,-0.54
2023-02-16T01:49:53.196Z,-0.48
2023-02-16T01:55:05.750Z,-0.44
2023-02-16T02:00:12.437Z,-0.45
2023-02-16T02:05:37.165Z,-0.52
2023-02-16T02:11:14.550Z,-0.57
2023-02-16T02:16:24.710Z,-0.62
2023-02-16T02:22:15.682Z,-0.70
2023-02-16T02:27:26.864Z,-0.74
2023-02-16T02:32:47.414Z,-0.68
2023-02-16T02:37:58.204Z,-0.66
2023-02-16T02:43:18.586Z,-0.72
2023-02-16T02:48:20.096Z,-0.76
2023-02-16T02:53:21.628Z,-0.69
2023-02-16T02:58:44.431Z,-0.66
2023-02-16T03:03:52.416Z,-0.65
2023-02-16T03:08:58.618Z,-0.73
2023-02-16T03:14:21.159Z,-0.87
2023-02-16T03:19:41.317Z,-1.01
2023-02-16T03:25:02.401Z,-1.01
2023-02-16T03:30:06.219Z,-0.96
2023-02-16T03:35:08.756Z,-0.96
2023-02-16T03:40:29.897Z,-1.03
2023-02-16T03:45:35.085Z,-1.10
2023-02-16T03:50:37.027Z,-1.01
2023-02-16T03:55:44.950Z,-1.03
2023-02-16T04:00:47.005Z,-1.09
2023-02-16T04:05:48.494Z,-1.08
2023-02-16T04:10:50.616Z,-1.07
2023-02-16T04:15:52.903Z,-1.14
2023-02-16T04:20:54.682Z,-1.22
2023-02-16T04:25:56.165Z,-1.34
2023-02-16T04:30:57.823Z,-1.40
2023-02-16T04:35:59.446Z,-1.42
2023-02-16T04:41:01.105Z,-1.32
2023-02-16T04:46:02.899Z,-1.29
2023-02-16T04:51:05.873Z,-1.32
2023-02-16T04:56:12.133Z,-1.35
2023-02-16T05:01:25.729Z,-1.38
2023-02-16T05:06:27.407Z,-1.32
2023-02-16T05:11:47.901Z,-1.19
2023-02-16T05:16:49.458Z,-1.15
2023-02-16T05:21:50.927Z,-1.18
2023-02-16T05:26:52.499Z,-1.22
2023-02-16T05:31:54.166Z,-1.25
2023-02-16T05:36:56.047Z,-1.17
2023-02-16T05:41:57.943Z,-1.08
2023-02-16T05:46:59.689Z,-1.04
2023-02-16T05:52:02.177Z,-1.08
2023-02-16T05:57:03.821Z,-1.09
2023-02-16T06:02:05.323Z,-1.08
2023-02-16T06:07:06.999Z,-0.98
2023-02-16T06:12:08.750Z,-1.00
2023-02-16T06:17:10.267Z,-1.00
2023-02-16T06:22:11.792Z,-0.96
2023-02-16T06:27:13.270Z,-0.82
2023-02-16T06:32:15.032Z,-0.69
2023-02-16T06:37:16.692Z,-0.59
2023-02-16T06:42:18.233Z,-0.53
2023-02-16T06:47:19.728Z,-0.52
2023-02-16T06:52:21.362Z,-0.37
2023-02-16T06:57:22.934Z,-0.18
2023-02-16T07:02:24.486Z,-0.18
2023-02-16T07:07:26.076Z,-0.10
2023-02-16T07:12:28.493Z,-0.04
2023-02-16T07:17:30.060Z,0.09
2023-02-16T07:22:32.371Z,0.33
2023-02-16T07:27:33.908Z,0.48
2023-02-16T07:32:35.526Z,0.52
2023-02-16T07:37:37.122Z,0.53
2023-02-16T07:42:39.178Z,0.66
2023-02-16T07:47:40.711Z,0.87
2023-02-16T07:52:42.672Z,0.96
2023-02-16T07:57:44.234Z,1.02
2023-02-16T08:02:45.848Z,1.08
2023-02-16T08:07:47.922Z,1.20
2023-02-16T08:12:49.895Z,1.40
2023-02-16T08:17:51.471Z,1.48
2023-02-16T08:22:54.822Z,1.58
2023-02-16T08:27:56.360Z,1.63
2023-02-16T08:33:01.165Z,1.81
2023-02-16T08:38:02.661Z,1.92
2023-02-16T08:43:04.327Z,2.07
2023-02-16T08:48:06.395Z,2.20
2023-02-16T08:53:07.928Z,2.32
2023-02-16T08:58:09.405Z,2.54
2023-02-16T09:03:10.958Z,2.76
2023-02-16T09:08:12.910Z,2.96
2023-02-16T09:13:15.163Z,3.06
2023-02-16T09:18:16.849Z,3.12
2023-02-16T09:23:20.503Z,3.20
2023-02-16T09:28:22.181Z,3.25
2023-02-16T09:33:23.859Z,3.41
2023-02-16T09:38:25.674Z,3.57
2023-02-16T09:43:53.146Z,3.69
2023-02-16T09:48:55.337Z,3.80
2023-02-16T09:54:03.999Z,3.84
2023-02-16T09:59:27.037Z,3.88
2023-02-16T10:04:54.085Z,3.92
2023-02-16T10:09:57.185Z,4.14
2023-02-16T10:15:09.375Z,4.34
2023-02-16T10:20:23.245Z,4.43
2023-02-16T10:25:48.971Z,4.52
2023-02-16T10:31:06.154Z,4.57
2023-02-16T10:36:23.336Z,4.72
2023-02-16T10:41:33.028Z,4.83
2023-02-16T10:46:40.418Z,4.95
2023-02-16T10:51:47.195Z,5.08
2023-02-16T10:57:00.799Z,5.16
2023-02-16T11:02:19.251Z,5.21
2023-02-16T11:07:27.054Z,5.39
2023-02-16T11:12:42.981Z,5.53
2023-02-16T11:17:49.207Z,5.57
2023-02-16T11:22:51.703Z,5.64
2023-02-16T11:28:05.500Z,5.75
2023-02-16T11:33:27.005Z,5.80
2023-02-16T11:38:30.757Z,5.83
2023-02-16T11:43:36.552Z,5.93
2023-02-16T11:48:38.134Z,6.03
2023-02-16T11:53:42.564Z,6.11
2023-02-16T11:58:45.168Z,6.28
2023-02-16T12:04:24.617Z,6.48
2023-02-16T12:09:39.542Z,6.59
2023-02-16T12:15:00.041Z,6.71
2023-02-16T12:20:04.401Z,6.80
2023-02-16T12:25:08.531Z,6.88
2023-02-16T12:30:34.132Z,7.00
2023-02-16T12:36:13.432Z,7.10
2023-02-16T12:41:23.915Z,7.21
2023-02-16T12:46:52.804Z,7.30
2023-02-16T12:52:05.389Z,7.44
2023-02-16T12:57:17.504Z,7.50
2023-02-16T13:02:44.518Z,7.53
2023-02-16T13:07:49.564Z,7.55
2023-02-16T13:13:01.118Z,7.51
2023-02-16T13:18:15.501Z,7.68
2023-02-16T13:24:19.024Z,7.80
2023-02-16T13:29:47.744Z,7.85
2023-02-16T13:35:08.854Z,7.79
2023-02-16T13:40:25.708Z,7.75
2023-02-16T13:45:32.399Z,7.65
2023-02-16T13:50:34.288Z,7.62
2023-02-16T13:55:38.745Z,7.54
2023-02-16T14:00:48.054Z,7.44
2023-02-16T14:05:52.164Z,7.38
2023-02-16T14:10:54.300Z,7.31
2023-02-16T14:15:59.374Z,7.25
2023-02-16T14:21:04.942Z,7.20
2023-02-16T14:26:10.181Z,7.13
2023-02-16T14:31:18.402Z,7.07
2023-02-16T14:36:24.342Z,7.00
2023-02-16T14:41:36.963Z,6.96
2023-02-16T14:46:50.717Z,6.90
2023-02-16T14:52:14.165Z,6.85
2023-02-16T14:58:08.218Z,6.79
2023-02-16T15:03:24.673Z,6.70
2023-02-16T15:08:35.864Z,6.63
2023-02-16T15:13:38.541Z,6.62
2023-02-16T15:18:44.113Z,6.65
2023-02-16T15:23:51.821Z,6.58
2023-02-16T15:28:56.625Z,6.47
2023-02-16T15:34:01.329Z,6.32
2023-02-16T15:39:08.983Z,6.18
2023-02-16T15:44:34.282Z,6.03
2023-02-16T15:49:38.949Z,5.87
2023-02-16T15:54:41.059Z,5.72
2023-02-16T15:59:57.209Z,5.59
2023-02-16T16:05:02.393Z,5.54
2023-02-16T16:10:17.302Z,5.53
2023-02-16T16:15:22.914Z,5.47
2023-02-16T16:20:27.642Z,5.30
2023-02-16T16:25:45.464Z,5.01
2023-02-16T16:30:47.040Z,4.87
2023-02-16T16:35:50.694Z,4.72
2023-02-16T16:41:01.161Z,4.60
2023-02-16T16:46:14.245Z,4.63
2023-02-16T16:51:27.653Z,4.66
2023-02-16T16:56:31.100Z,4.64
2023-02-16T17:01:33.066Z,4.59
2023-02-16T17:06:34.597Z,4.53
2023-02-16T17:11:38.018Z,4.45
2023-02-16T17:16:45.460Z,4.45
2023-02-16T17:21:47.882Z,4.46
2023-02-16T17:26:50.261Z,4.42
2023-02-16T17:31:52.002Z,4.37
2023-02-16T17:36:53.748Z,4.28
2023-02-16T17:41:55.331Z,4.18
2023-02-16T17:46:56.899Z,4.14
2023-02-16T17:51:58.373Z,4.14
2023-02-16T17:57:00.069Z,4.09
2023-02-16T18:02:01.589Z,3.98
2023-02-16T18:07:03.118Z,3.85
2023-02-16T18:12:04.981Z,3.73
2023-02-16T18:17:07.061Z,3.72
2023-02-16T18:22:08.713Z,3.74
2023-02-16T18:27:10.709Z,3.69
2023-02-16T18:32:12.440Z,3.62
2023-02-16T18:37:14.372Z,3.52
2023-02-16T18:42:16.540Z,3.42
2023-02-16T18:47:18.253Z,3.43
2023-02-16T18:52:20.410Z,3.45
2023-02-16T18:57:22.721Z,3.38
2023-02-16T19:02:24.247Z,3.27
2023-02-16T19:07:25.921Z,3.19
2023-02-16T19:12:27.440Z,3.22
2023-02-16T19:17:28.909Z,3.22
2023-02-16T19:22:31.551Z,3.16
2023-02-16T19:27:33.441Z,3.06
2023-02-16T19:32:35.014Z,3.09
2023-02-16T19:37:36.563Z,3.12
2023-02-16T19:42:39.169Z,3.09
2023-02-16T19:47:41.694Z,3.03
2023-02-16T19:52:43.246Z,2.99
2023-02-16T19:57:44.764Z,3.04
2023-02-16T20:02:46.293Z,3.03
2023-02-16T20:07:47.801Z,2.99
2023-02-16T20:12:49.287Z,2.92
2023-02-16T20:17:51.204Z,2.90
2023-02-16T20:22:52.695Z,2.92
2023-02-16T20:27:57.178Z,2.90
2023-02-16T20:32:58.698Z,2.84
2023-02-16T20:38:00.298Z,2.77
2023-02-16T20:43:01.789Z,2.79
2023-02-16T20:48:04.187Z,2.85
2023-02-16T20:53:06.450Z,2.84
2023-02-16T20:58:07.980Z,2.77
2023-02-16T21:03:09.902Z,2.70
2023-02-16T21:08:11.417Z,2.73
2023-02-16T21:13:13.309Z,2.81
2023-02-16T21:18:14.847Z,2.82
2023-02-16T21:23:16.450Z,2.79
2023-02-16T21:28:18.190Z,2.69
2023-02-16T21:33:20.282Z,2.71
2023-02-16T21:38:22.127Z,2.72
2023-02-16T21:43:23.651Z,2.64
2023-02-16T21:48:44.010Z,2.56
2023-02-16T21:53:46.086Z,2.55
2023-02-16T21:58:47.740Z,2.54
2023-02-16T22:03:50.098Z,2.45
2023-02-16T22:08:52.120Z,2.38
2023-02-16T22:13:55.727Z,2.28
2023-02-16T22:19:07.350Z,2.30
2023-02-16T22:24:13.038Z,2.30
2023-02-16T22:29:14.544Z,2.28
2023-02-16T22:34:19.263Z,2.27
2023-02-16T22:39:21.163Z,2.32
2023-02-16T22:44:22.676Z,2.37
2023-02-16T22:49:24.164Z,2.33
2023-02-16T22:54:26.040Z,2.27
2023-02-16T22:59:27.973Z,2.22
2023-02-16T23:04:29.504Z,2.23
2023-02-16T23:09:31.010Z,2.27
2023-02-16T23:14:37.290Z,2.25
2023-02-16T23:19:40.182Z,2.22
2023-02-16T23:24:41.838Z,2.25
2023-02-16T23:29:43.447Z,2.29
2023-02-16T23:34:44.977Z,2.28
2023-02-16T23:39:46.486Z,2.24
2023-02-16T23:44:48.008Z,2.18
2023-02-16T23:49:49.911Z,2.22
2023-02-16T23:54:52.021Z,2.27
2023-02-16T23:59:53.547Z,2.28
